Henning, Minnesota
Current Conditions -  °F | °C
As of 7:53 PM on Monday 24 Nov 2014 (Local Time) from KADC Reporting Station
Light Snow Light Snow  
Wind Chill: -4°   Ceiling: 900
Heat Index: 10°   Visibility: 10mi
Dew Point:   Wind: 12mph
Humidity: 85%   Direction: 310°NW
Pressure: 29.87"   Gusts: NA
Location:  46.32°N, 95.45°W
Report Text: KADC 250153Z AUTO 31010KT 10SM -SN OVC009 M12/M14 A2987 RMK AO2
Loading
Personal Weather Stations






























Interactive Weather Map New forecast layout! Learn more

10-Day Weather Forecast

Advertisements
Track Severe Weather on mobile